sensor_id;sensor_type;location;lat;lon;timestamp;temperature;humidity
3727;DHT22;1879;45.876;12.300;2024-01-25T00:01:20;4.10;99.90
3727;DHT22;1879;45.876;12.300;2024-01-25T00:03:47;4.10;99.90
3727;DHT22;1879;45.876;12.300;2024-01-25T00:06:14;4.10;99.90
3727;DHT22;1879;45.876;12.300;2024-01-25T00:08:43;4.10;99.90
3727;DHT22;1879;45.876;12.300;2024-01-25T00:11:10;4.10;99.90
3727;DHT22;1879;45.876;12.300;2024-01-25T00:13:36;4.00;99.90
3727;DHT22;1879;45.876;12.300;2024-01-25T00:16:05;4.10;99.90
3727;DHT22;1879;45.876;12.300;2024-01-25T00:18:32;4.00;99.90
3727;DHT22;1879;45.876;12.300;2024-01-25T00:20:58;4.00;99.90
3727;DHT22;1879;45.876;12.300;2024-01-25T00:23:26;3.90;99.90
3727;DHT22;1879;45.876;12.300;2024-01-25T00:25:54;3.90;99.90
3727;DHT22;1879;45.876;12.300;2024-01-25T00:28:24;3.90;99.90
3727;DHT22;1879;45.876;12.300;2024-01-25T00:30:50;4.00;99.90
3727;DHT22;1879;45.876;12.300;2024-01-25T00:33:18;4.00;99.90
3727;DHT22;1879;45.876;12.300;2024-01-25T00:35:45;4.00;99.90
3727;DHT22;1879;45.876;12.300;2024-01-25T00:38:12;4.00;99.90
3727;DHT22;1879;45.876;12.300;2024-01-25T00:40:40;4.10;99.90
3727;DHT22;1879;45.876;12.300;2024-01-25T00:43:09;4.00;99.90
3727;DHT22;1879;45.876;12.300;2024-01-25T00:45:37;4.00;99.90
3727;DHT22;1879;45.876;12.300;2024-01-25T00:48:05;4.00;99.90
3727;DHT22;1879;45.876;12.300;2024-01-25T00:50:32;4.00;99.90
3727;DHT22;1879;45.876;12.300;2024-01-25T00:53:00;4.00;99.90
3727;DHT22;1879;45.876;12.300;2024-01-25T00:55:27;4.00;99.90
3727;DHT22;1879;45.876;12.300;2024-01-25T00:57:55;3.90;99.90
3727;DHT22;1879;45.876;12.300;2024-01-25T01:00:24;3.90;99.90
3727;DHT22;1879;45.876;12.300;2024-01-25T01:02:53;3.80;99.90
3727;DHT22;1879;45.876;12.300;2024-01-25T01:05:21;3.80;99.90
3727;DHT22;1879;45.876;12.300;2024-01-25T01:07:49;3.80;99.90
3727;DHT22;1879;45.876;12.300;2024-01-25T01:10:16;3.80;99.90
3727;DHT22;1879;45.876;12.300;2024-01-25T01:12:43;3.80;99.90
3727;DHT22;1879;45.876;12.300;2024-01-25T01:15:10;3.80;99.90
3727;DHT22;1879;45.876;12.300;2024-01-25T01:17:38;3.80;99.90
3727;DHT22;1879;45.876;12.300;2024-01-25T01:20:06;3.70;99.90
3727;DHT22;1879;45.876;12.300;2024-01-25T01:22:33;3.70;99.90
3727;DHT22;1879;45.876;12.300;2024-01-25T01:25:00;3.60;99.90
3727;DHT22;1879;45.876;12.300;2024-01-25T01:27:27;3.60;99.90
3727;DHT22;1879;45.876;12.300;2024-01-25T01:29:54;3.60;99.90
3727;DHT22;1879;45.876;12.300;2024-01-25T01:32:20;3.60;99.90
3727;DHT22;1879;45.876;12.300;2024-01-25T01:34:49;3.60;99.90
3727;DHT22;1879;45.876;12.300;2024-01-25T01:37:16;3.60;99.90
3727;DHT22;1879;45.876;12.300;2024-01-25T01:39:42;3.60;99.90
3727;DHT22;1879;45.876;12.300;2024-01-25T01:42:09;3.60;99.90
3727;DHT22;1879;45.876;12.300;2024-01-25T01:44:36;3.50;99.90
3727;DHT22;1879;45.876;12.300;2024-01-25T01:47:04;3.40;99.90
3727;DHT22;1879;45.876;12.300;2024-01-25T01:49:31;3.50;99.90
3727;DHT22;1879;45.876;12.300;2024-01-25T01:51:59;3.40;99.90
3727;DHT22;1879;45.876;12.300;2024-01-25T01:54:26;3.30;99.90
3727;DHT22;1879;45.876;12.300;2024-01-25T01:56:53;3.40;99.90
3727;DHT22;1879;45.876;12.300;2024-01-25T01:59:21;3.40;99.90
3727;DHT22;1879;45.876;12.300;2024-01-25T02:01:51;3.40;99.90
3727;DHT22;1879;45.876;12.300;2024-01-25T02:04:18;3.50;99.90
3727;DHT22;1879;45.876;12.300;2024-01-25T02:06:45;3.50;99.90
3727;DHT22;1879;45.876;12.300;2024-01-25T02:09:13;3.40;99.90
3727;DHT22;1879;45.876;12.300;2024-01-25T02:11:40;3.50;99.90
3727;DHT22;1879;45.876;12.300;2024-01-25T02:14:07;3.50;99.90
3727;DHT22;1879;45.876;12.300;2024-01-25T02:16:36;3.50;99.90
3727;DHT22;1879;45.876;12.300;2024-01-25T02:19:03;3.50;99.90
3727;DHT22;1879;45.876;12.300;2024-01-25T02:21:30;3.50;99.90
3727;DHT22;1879;45.876;12.300;2024-01-25T02:23:58;3.50;99.90
3727;DHT22;1879;45.876;12.300;2024-01-25T02:26:25;3.50;99.90
3727;DHT22;1879;45.876;12.300;2024-01-25T02:28:52;3.60;99.90
3727;DHT22;1879;45.876;12.300;2024-01-25T02:31:19;3.60;99.90
3727;DHT22;1879;45.876;12.300;2024-01-25T02:33:46;3.50;99.90
3727;DHT22;1879;45.876;12.300;2024-01-25T02:36:13;3.40;99.90
3727;DHT22;1879;45.876;12.300;2024-01-25T02:38:39;3.40;99.90
3727;DHT22;1879;45.876;12.300;2024-01-25T02:41:08;3.40;99.90
3727;DHT22;1879;45.876;12.300;2024-01-25T02:43:35;3.40;99.90
3727;DHT22;1879;45.876;12.300;2024-01-25T02:46:02;3.30;99.90
3727;DHT22;1879;45.876;12.300;2024-01-25T02:48:29;3.30;99.90
3727;DHT22;1879;45.876;12.300;2024-01-25T02:50:55;3.40;99.90
3727;DHT22;1879;45.876;12.300;2024-01-25T02:53:21;3.40;99.90
3727;DHT22;1879;45.876;12.300;2024-01-25T02:55:48;3.40;99.90
3727;DHT22;1879;45.876;12.300;2024-01-25T02:58:17;3.30;99.90
3727;DHT22;1879;45.876;12.300;2024-01-25T03:00:44;3.30;99.90
3727;DHT22;1879;45.876;12.300;2024-01-25T03:03:14;3.30;99.90
3727;DHT22;1879;45.876;12.300;2024-01-25T03:05:41;3.40;99.90
3727;DHT22;1879;45.876;12.300;2024-01-25T03:08:08;3.40;99.90
3727;DHT22;1879;45.876;12.300;2024-01-25T03:10:35;3.40;99.90
3727;DHT22;1879;45.876;12.300;2024-01-25T03:13:02;3.40;99.90
3727;DHT22;1879;45.876;12.300;2024-01-25T03:15:31;3.40;99.90
3727;DHT22;1879;45.876;12.300;2024-01-25T03:17:58;3.50;99.90
3727;DHT22;1879;45.876;12.300;2024-01-25T03:20:24;3.50;99.90
3727;DHT22;1879;45.876;12.300;2024-01-25T03:22:51;3.40;99.90
3727;DHT22;1879;45.876;12.300;2024-01-25T03:25:20;3.40;99.90
3727;DHT22;1879;45.876;12.300;2024-01-25T03:27:46;3.30;99.90
3727;DHT22;1879;45.876;12.300;2024-01-25T03:30:14;3.20;99.90
3727;DHT22;1879;45.876;12.300;2024-01-25T03:32:42;3.20;99.90
3727;DHT22;1879;45.876;12.300;2024-01-25T03:35:09;3.20;99.90
3727;DHT22;1879;45.876;12.300;2024-01-25T03:37:36;3.30;99.90
3727;DHT22;1879;45.876;12.300;2024-01-25T03:40:04;3.30;99.90
3727;DHT22;1879;45.876;12.300;2024-01-25T03:42:31;3.30;99.90
3727;DHT22;1879;45.876;12.300;2024-01-25T03:44:58;3.30;99.90
3727;DHT22;1879;45.876;12.300;2024-01-25T03:47:25;3.20;99.90
3727;DHT22;1879;45.876;12.300;2024-01-25T03:49:53;3.20;99.90
3727;DHT22;1879;45.876;12.300;2024-01-25T03:52:20;3.20;99.90
3727;DHT22;1879;45.876;12.300;2024-01-25T03:54:47;3.30;99.90
3727;DHT22;1879;45.876;12.300;2024-01-25T03:57:14;3.30;99.90
3727;DHT22;1879;45.876;12.300;2024-01-25T03:59:41;3.30;99.90
3727;DHT22;1879;45.876;12.300;2024-01-25T04:02:08;3.30;99.90
3727;DHT22;1879;45.876;12.300;2024-01-25T04:04:35;3.30;99.90
3727;DHT22;1879;45.876;12.300;2024-01-25T04:07:04;3.20;99.90
3727;DHT22;1879;45.876;12.300;2024-01-25T04:09:30;3.10;99.90
3727;DHT22;1879;45.876;12.300;2024-01-25T04:11:57;3.10;99.90
3727;DHT22;1879;45.876;12.300;2024-01-25T04:14:24;3.20;99.90
3727;DHT22;1879;45.876;12.300;2024-01-25T04:16:51;3.30;99.90
3727;DHT22;1879;45.876;12.300;2024-01-25T04:19:18;3.40;99.90
3727;DHT22;1879;45.876;12.300;2024-01-25T04:21:45;3.40;99.90
3727;DHT22;1879;45.876;12.300;2024-01-25T04:24:13;3.40;99.90
3727;DHT22;1879;45.876;12.300;2024-01-25T04:26:40;3.50;99.90
3727;DHT22;1879;45.876;12.300;2024-01-25T04:29:07;3.50;99.90
3727;DHT22;1879;45.876;12.300;2024-01-25T04:31:34;3.50;99.90
3727;DHT22;1879;45.876;12.300;2024-01-25T04:34:01;3.50;99.90
3727;DHT22;1879;45.876;12.300;2024-01-25T04:36:28;3.50;99.90
3727;DHT22;1879;45.876;12.300;2024-01-25T04:38:55;3.50;99.90
3727;DHT22;1879;45.876;12.300;2024-01-25T04:41:23;3.50;99.90
3727;DHT22;1879;45.876;12.300;2024-01-25T04:43:50;3.40;99.90
3727;DHT22;1879;45.876;12.300;2024-01-25T04:46:17;3.50;99.90
3727;DHT22;1879;45.876;12.300;2024-01-25T04:48:43;3.60;99.90
3727;DHT22;1879;45.876;12.300;2024-01-25T04:51:15;3.60;99.90
3727;DHT22;1879;45.876;12.300;2024-01-25T04:53:42;3.50;99.90
3727;DHT22;1879;45.876;12.300;2024-01-25T04:56:09;3.50;99.90
3727;DHT22;1879;45.876;12.300;2024-01-25T04:58:37;3.50;99.90
3727;DHT22;1879;45.876;12.300;2024-01-25T05:01:04;3.50;99.90
3727;DHT22;1879;45.876;12.300;2024-01-25T05:03:32;3.60;99.90
3727;DHT22;1879;45.876;12.300;2024-01-25T05:05:59;3.60;99.90
3727;DHT22;1879;45.876;12.300;2024-01-25T05:08:26;3.60;99.90
3727;DHT22;1879;45.876;12.300;2024-01-25T05:10:53;3.60;99.90
3727;DHT22;1879;45.876;12.300;2024-01-25T05:13:20;3.70;99.90
3727;DHT22;1879;45.876;12.300;2024-01-25T05:15:48;3.80;99.90
3727;DHT22;1879;45.876;12.300;2024-01-25T05:18:15;3.90;99.90
3727;DHT22;1879;45.876;12.300;2024-01-25T05:20:42;3.90;99.90
3727;DHT22;1879;45.876;12.300;2024-01-25T05:23:09;3.90;99.90
3727;DHT22;1879;45.876;12.300;2024-01-25T05:25:36;3.90;99.90
3727;DHT22;1879;45.876;12.300;2024-01-25T05:28:04;4.00;99.90
3727;DHT22;1879;45.876;12.300;2024-01-25T05:30:31;3.90;99.90
3727;DHT22;1879;45.876;12.300;2024-01-25T05:33:00;3.90;99.90
3727;DHT22;1879;45.876;12.300;2024-01-25T05:35:27;3.80;99.90
3727;DHT22;1879;45.876;12.300;2024-01-25T05:37:54;3.70;99.90
3727;DHT22;1879;45.876;12.300;2024-01-25T05:40:21;3.70;99.90
3727;DHT22;1879;45.876;12.300;2024-01-25T05:42:48;3.70;99.90
3727;DHT22;1879;45.876;12.300;2024-01-25T05:45:15;3.80;99.90
3727;DHT22;1879;45.876;12.300;2024-01-25T05:47:45;3.70;99.90
3727;DHT22;1879;45.876;12.300;2024-01-25T05:50:14;3.70;99.90
3727;DHT22;1879;45.876;12.300;2024-01-25T05:52:41;3.70;99.90
3727;DHT22;1879;45.876;12.300;2024-01-25T05:55:08;3.70;99.90
3727;DHT22;1879;45.876;12.300;2024-01-25T05:57:35;3.60;99.90
3727;DHT22;1879;45.876;12.300;2024-01-25T06:00:03;3.60;99.90
3727;DHT22;1879;45.876;12.300;2024-01-25T06:02:30;3.70;99.90
3727;DHT22;1879;45.876;12.300;2024-01-25T06:04:58;3.70;99.90
3727;DHT22;1879;45.876;12.300;2024-01-25T06:07:26;3.60;99.90
3727;DHT22;1879;45.876;12.300;2024-01-25T06:09:53;3.70;99.90
3727;DHT22;1879;45.876;12.300;2024-01-25T06:12:20;3.70;99.90
3727;DHT22;1879;45.876;12.300;2024-01-25T06:14:47;3.80;99.90
3727;DHT22;1879;45.876;12.300;2024-01-25T06:17:14;3.80;99.90
3727;DHT22;1879;45.876;12.300;2024-01-25T06:19:41;3.80;99.90
3727;DHT22;1879;45.876;12.300;2024-01-25T06:22:07;3.70;99.90
3727;DHT22;1879;45.876;12.300;2024-01-25T06:24:35;3.80;99.90
3727;DHT22;1879;45.876;12.300;2024-01-25T06:27:02;3.80;99.90
3727;DHT22;1879;45.876;12.300;2024-01-25T06:29:29;3.90;99.90
3727;DHT22;1879;45.876;12.300;2024-01-25T06:31:56;3.90;99.90
3727;DHT22;1879;45.876;12.300;2024-01-25T06:34:23;4.00;99.90
3727;DHT22;1879;45.876;12.300;2024-01-25T06:36:50;3.90;99.90
3727;DHT22;1879;45.876;12.300;2024-01-25T06:39:17;3.90;99.90
3727;DHT22;1879;45.876;12.300;2024-01-25T06:41:45;3.90;99.90
3727;DHT22;1879;45.876;12.300;2024-01-25T06:44:12;4.00;99.90
3727;DHT22;1879;45.876;12.300;2024-01-25T06:46:39;4.10;99.90
3727;DHT22;1879;45.876;12.300;2024-01-25T06:49:06;4.20;99.90
3727;DHT22;1879;45.876;12.300;2024-01-25T06:51:33;4.20;99.90
3727;DHT22;1879;45.876;12.300;2024-01-25T06:54:00;4.30;99.90
3727;DHT22;1879;45.876;12.300;2024-01-25T06:56:27;4.30;99.90
3727;DHT22;1879;45.876;12.300;2024-01-25T06:58:55;4.30;99.90
3727;DHT22;1879;45.876;12.300;2024-01-25T07:01:22;4.30;99.90
3727;DHT22;1879;45.876;12.300;2024-01-25T07:03:49;4.30;99.90
3727;DHT22;1879;45.876;12.300;2024-01-25T07:06:16;4.30;99.90
3727;DHT22;1879;45.876;12.300;2024-01-25T07:08:44;4.40;99.90
3727;DHT22;1879;45.876;12.300;2024-01-25T07:11:11;4.50;99.90
3727;DHT22;1879;45.876;12.300;2024-01-25T07:13:38;4.50;99.90
3727;DHT22;1879;45.876;12.300;2024-01-25T07:16:06;4.60;99.90
3727;DHT22;1879;45.876;12.300;2024-01-25T07:18:33;4.60;99.90
3727;DHT22;1879;45.876;12.300;2024-01-25T07:21:00;4.60;99.90
3727;DHT22;1879;45.876;12.300;2024-01-25T07:23:29;4.70;99.90
3727;DHT22;1879;45.876;12.300;2024-01-25T07:25:56;4.80;99.90
3727;DHT22;1879;45.876;12.300;2024-01-25T07:28:23;4.90;99.90
3727;DHT22;1879;45.876;12.300;2024-01-25T07:30:50;5.00;99.90
3727;DHT22;1879;45.876;12.300;2024-01-25T07:33:19;5.00;99.90
3727;DHT22;1879;45.876;12.300;2024-01-25T07:35:46;5.10;99.90
3727;DHT22;1879;45.876;12.300;2024-01-25T07:38:14;5.00;99.90
3727;DHT22;1879;45.876;12.300;2024-01-25T07:40:42;5.00;99.90
3727;DHT22;1879;45.876;12.300;2024-01-25T07:43:09;5.00;99.90
3727;DHT22;1879;45.876;12.300;2024-01-25T07:45:36;5.10;99.90
3727;DHT22;1879;45.876;12.300;2024-01-25T07:48:05;5.20;99.90
3727;DHT22;1879;45.876;12.300;2024-01-25T07:50:33;5.30;99.90
3727;DHT22;1879;45.876;12.300;2024-01-25T07:53:00;5.50;99.90
3727;DHT22;1879;45.876;12.300;2024-01-25T07:55:28;5.70;99.90
3727;DHT22;1879;45.876;12.300;2024-01-25T07:57:55;5.80;99.90
3727;DHT22;1879;45.876;12.300;2024-01-25T08:00:22;5.90;99.90
3727;DHT22;1879;45.876;12.300;2024-01-25T08:02:49;6.00;99.90
3727;DHT22;1879;45.876;12.300;2024-01-25T08:05:16;6.10;99.90
3727;DHT22;1879;45.876;12.300;2024-01-25T08:07:45;6.40;99.90
3727;DHT22;1879;45.876;12.300;2024-01-25T08:10:12;6.60;99.90
3727;DHT22;1879;45.876;12.300;2024-01-25T08:12:39;6.60;99.90
3727;DHT22;1879;45.876;12.300;2024-01-25T08:15:09;6.60;99.90
3727;DHT22;1879;45.876;12.300;2024-01-25T08:17:37;6.70;99.90
3727;DHT22;1879;45.876;12.300;2024-01-25T08:20:05;6.80;99.90
3727;DHT22;1879;45.876;12.300;2024-01-25T08:22:33;6.90;99.90
3727;DHT22;1879;45.876;12.300;2024-01-25T08:25:01;6.90;99.90
3727;DHT22;1879;45.876;12.300;2024-01-25T08:27:30;7.00;99.90
3727;DHT22;1879;45.876;12.300;2024-01-25T08:29:57;7.00;99.90
3727;DHT22;1879;45.876;12.300;2024-01-25T08:32:23;7.10;99.90
3727;DHT22;1879;45.876;12.300;2024-01-25T08:34:50;7.20;99.90
3727;DHT22;1879;45.876;12.300;2024-01-25T08:39:44;7.50;99.90
3727;DHT22;1879;45.876;12.300;2024-01-25T08:42:16;7.50;99.90
3727;DHT22;1879;45.876;12.300;2024-01-25T08:44:43;7.50;99.90
3727;DHT22;1879;45.876;12.300;2024-01-25T08:47:14;7.60;99.90
3727;DHT22;1879;45.876;12.300;2024-01-25T08:49:42;7.70;99.90
3727;DHT22;1879;45.876;12.300;2024-01-25T08:52:09;7.80;99.90
3727;DHT22;1879;45.876;12.300;2024-01-25T08:54:36;7.90;99.90
3727;DHT22;1879;45.876;12.300;2024-01-25T08:57:04;7.90;99.90
3727;DHT22;1879;45.876;12.300;2024-01-25T08:59:32;8.00;99.90
3727;DHT22;1879;45.876;12.300;2024-01-25T09:02:00;8.10;99.90
3727;DHT22;1879;45.876;12.300;2024-01-25T09:04:28;8.20;99.90
3727;DHT22;1879;45.876;12.300;2024-01-25T09:06:55;8.30;99.90
3727;DHT22;1879;45.876;12.300;2024-01-25T09:09:22;8.50;99.90
3727;DHT22;1879;45.876;12.300;2024-01-25T09:11:48;8.70;99.90
3727;DHT22;1879;45.876;12.300;2024-01-25T09:14:15;8.90;99.90
3727;DHT22;1879;45.876;12.300;2024-01-25T09:16:44;9.00;99.90
3727;DHT22;1879;45.876;12.300;2024-01-25T09:19:11;9.20;99.90
3727;DHT22;1879;45.876;12.300;2024-01-25T09:21:38;9.30;99.90
3727;DHT22;1879;45.876;12.300;2024-01-25T09:24:05;9.40;99.90
3727;DHT22;1879;45.876;12.300;2024-01-25T09:26:32;9.50;99.90
3727;DHT22;1879;45.876;12.300;2024-01-25T09:29:00;9.60;99.90
3727;DHT22;1879;45.876;12.300;2024-01-25T09:31:26;9.60;99.90
3727;DHT22;1879;45.876;12.300;2024-01-25T09:33:55;9.60;99.90
3727;DHT22;1879;45.876;12.300;2024-01-25T09:36:22;9.60;99.90
3727;DHT22;1879;45.876;12.300;2024-01-25T09:38:49;9.60;99.90
3727;DHT22;1879;45.876;12.300;2024-01-25T09:41:16;9.70;99.90
3727;DHT22;1879;45.876;12.300;2024-01-25T09:43:43;9.70;99.90
3727;DHT22;1879;45.876;12.300;2024-01-25T09:46:13;9.70;99.90
3727;DHT22;1879;45.876;12.300;2024-01-25T09:48:41;9.80;99.90
3727;DHT22;1879;45.876;12.300;2024-01-25T09:51:11;9.80;99.90
3727;DHT22;1879;45.876;12.300;2024-01-25T09:53:39;9.90;99.90
3727;DHT22;1879;45.876;12.300;2024-01-25T09:56:09;10.00;99.90
3727;DHT22;1879;45.876;12.300;2024-01-25T09:58:40;10.10;99.90
3727;DHT22;1879;45.876;12.300;2024-01-25T10:01:09;10.30;99.90
3727;DHT22;1879;45.876;12.300;2024-01-25T10:03:38;10.40;99.90
3727;DHT22;1879;45.876;12.300;2024-01-25T10:06:11;10.40;99.90
3727;DHT22;1879;45.876;12.300;2024-01-25T10:08:38;10.60;99.90
3727;DHT22;1879;45.876;12.300;2024-01-25T10:11:05;10.60;99.90
3727;DHT22;1879;45.876;12.300;2024-01-25T10:13:40;10.70;99.90
3727;DHT22;1879;45.876;12.300;2024-01-25T10:16:09;10.90;99.90
3727;DHT22;1879;45.876;12.300;2024-01-25T10:18:36;11.00;99.90
3727;DHT22;1879;45.876;12.300;2024-01-25T10:21:04;11.10;99.90
3727;DHT22;1879;45.876;12.300;2024-01-25T10:23:32;11.10;99.90
3727;DHT22;1879;45.876;12.300;2024-01-25T10:25:59;11.20;99.90
3727;DHT22;1879;45.876;12.300;2024-01-25T10:28:26;11.30;99.90
3727;DHT22;1879;45.876;12.300;2024-01-25T10:30:56;11.50;99.90
3727;DHT22;1879;45.876;12.300;2024-01-25T10:33:24;11.60;99.90
3727;DHT22;1879;45.876;12.300;2024-01-25T10:35:54;11.80;99.90
3727;DHT22;1879;45.876;12.300;2024-01-25T10:38:25;12.00;99.80
3727;DHT22;1879;45.876;12.300;2024-01-25T10:40:54;12.10;99.40
3727;DHT22;1879;45.876;12.300;2024-01-25T10:43:21;12.20;99.40
3727;DHT22;1879;45.876;12.300;2024-01-25T10:45:48;12.30;98.00
3727;DHT22;1879;45.876;12.300;2024-01-25T10:48:21;12.50;97.30
3727;DHT22;1879;45.876;12.300;2024-01-25T10:50:48;12.50;96.30
3727;DHT22;1879;45.876;12.300;2024-01-25T10:53:16;12.50;96.50
3727;DHT22;1879;45.876;12.300;2024-01-25T10:55:44;12.60;96.30
3727;DHT22;1879;45.876;12.300;2024-01-25T10:58:14;12.70;96.00
3727;DHT22;1879;45.876;12.300;2024-01-25T11:00:48;12.80;95.60
3727;DHT22;1879;45.876;12.300;2024-01-25T11:03:15;12.80;95.50
3727;DHT22;1879;45.876;12.300;2024-01-25T11:05:44;12.90;95.60
3727;DHT22;1879;45.876;12.300;2024-01-25T11:08:18;13.10;95.40
3727;DHT22;1879;45.876;12.300;2024-01-25T11:10:49;13.20;94.50
3727;DHT22;1879;45.876;12.300;2024-01-25T11:13:24;13.20;94.10
3727;DHT22;1879;45.876;12.300;2024-01-25T11:15:52;13.40;93.00
3727;DHT22;1879;45.876;12.300;2024-01-25T11:18:20;13.50;92.80
3727;DHT22;1879;45.876;12.300;2024-01-25T11:20:51;13.60;92.70
3727;DHT22;1879;45.876;12.300;2024-01-25T11:23:18;13.70;92.90
3727;DHT22;1879;45.876;12.300;2024-01-25T11:25:47;13.80;92.30
3727;DHT22;1879;45.876;12.300;2024-01-25T11:28:14;14.00;92.20
3727;DHT22;1879;45.876;12.300;2024-01-25T11:30:44;14.10;91.60
3727;DHT22;1879;45.876;12.300;2024-01-25T11:33:13;14.30;91.80
3727;DHT22;1879;45.876;12.300;2024-01-25T11:35:40;14.60;91.90
3727;DHT22;1879;45.876;12.300;2024-01-25T11:38:09;15.20;91.30
3727;DHT22;1879;45.876;12.300;2024-01-25T11:40:38;17.50;99.90
3727;DHT22;1879;45.876;12.300;2024-01-25T11:43:05;17.50;99.90
3727;DHT22;1879;45.876;12.300;2024-01-25T11:45:36;18.80;81.30
3727;DHT22;1879;45.876;12.300;2024-01-25T11:48:10;20.10;76.10
3727;DHT22;1879;45.876;12.300;2024-01-25T11:50:37;21.10;68.10
3727;DHT22;1879;45.876;12.300;2024-01-25T11:53:04;21.80;64.60
3727;DHT22;1879;45.876;12.300;2024-01-25T11:55:31;22.40;61.20
3727;DHT22;1879;45.876;12.300;2024-01-25T11:57:58;23.20;57.50
3727;DHT22;1879;45.876;12.300;2024-01-25T12:00:25;23.80;53.60
3727;DHT22;1879;45.876;12.300;2024-01-25T12:05:21;25.50;49.10
3727;DHT22;1879;45.876;12.300;2024-01-25T12:07:48;26.00;47.00
3727;DHT22;1879;45.876;12.300;2024-01-25T12:10:16;25.70;45.00
3727;DHT22;1879;45.876;12.300;2024-01-25T12:12:43;25.90;44.50
3727;DHT22;1879;45.876;12.300;2024-01-25T12:15:10;26.00;44.80
3727;DHT22;1879;45.876;12.300;2024-01-25T12:17:38;26.70;44.40
3727;DHT22;1879;45.876;12.300;2024-01-25T12:20:06;27.00;42.50
3727;DHT22;1879;45.876;12.300;2024-01-25T12:22:37;27.00;41.70
3727;DHT22;1879;45.876;12.300;2024-01-25T12:25:07;27.40;41.30
3727;DHT22;1879;45.876;12.300;2024-01-25T12:27:35;28.00;40.50
3727;DHT22;1879;45.876;12.300;2024-01-25T12:30:03;28.10;40.70
3727;DHT22;1879;45.876;12.300;2024-01-25T12:32:30;27.80;39.60
3727;DHT22;1879;45.876;12.300;2024-01-25T12:34:58;27.40;39.50
3727;DHT22;1879;45.876;12.300;2024-01-25T12:37:26;27.30;38.90
3727;DHT22;1879;45.876;12.300;2024-01-25T12:39:55;27.10;38.90
3727;DHT22;1879;45.876;12.300;2024-01-25T12:42:22;26.80;39.10
3727;DHT22;1879;45.876;12.300;2024-01-25T12:44:53;26.30;39.50
3727;DHT22;1879;45.876;12.300;2024-01-25T12:47:20;26.40;39.40
3727;DHT22;1879;45.876;12.300;2024-01-25T12:49:47;26.90;40.00
3727;DHT22;1879;45.876;12.300;2024-01-25T12:52:15;26.80;39.50
3727;DHT22;1879;45.876;12.300;2024-01-25T12:54:42;27.00;39.80
3727;DHT22;1879;45.876;12.300;2024-01-25T12:57:11;27.00;38.80
3727;DHT22;1879;45.876;12.300;2024-01-25T12:59:38;27.30;39.50
3727;DHT22;1879;45.876;12.300;2024-01-25T13:02:05;27.30;39.00
3727;DHT22;1879;45.876;12.300;2024-01-25T13:04:33;27.40;38.60
3727;DHT22;1879;45.876;12.300;2024-01-25T13:07:00;27.40;38.10
3727;DHT22;1879;45.876;12.300;2024-01-25T13:09:27;27.20;38.50
3727;DHT22;1879;45.876;12.300;2024-01-25T13:11:55;27.40;38.20
3727;DHT22;1879;45.876;12.300;2024-01-25T13:14:24;27.00;38.40
3727;DHT22;1879;45.876;12.300;2024-01-25T13:16:51;26.80;38.70
3727;DHT22;1879;45.876;12.300;2024-01-25T13:19:18;26.40;38.90
3727;DHT22;1879;45.876;12.300;2024-01-25T13:21:45;25.50;39.20
3727;DHT22;1879;45.876;12.300;2024-01-25T13:24:12;24.40;39.50
3727;DHT22;1879;45.876;12.300;2024-01-25T13:26:39;24.00;41.00
3727;DHT22;1879;45.876;12.300;2024-01-25T13:29:06;24.10;41.70
3727;DHT22;1879;45.876;12.300;2024-01-25T13:31:39;24.10;42.40
3727;DHT22;1879;45.876;12.300;2024-01-25T13:34:06;24.30;41.70
3727;DHT22;1879;45.876;12.300;2024-01-25T13:36:33;24.40;41.80
3727;DHT22;1879;45.876;12.300;2024-01-25T13:39:00;24.90;41.80
3727;DHT22;1879;45.876;12.300;2024-01-25T13:41:27;24.70;41.00
3727;DHT22;1879;45.876;12.300;2024-01-25T13:43:54;24.60;41.70
3727;DHT22;1879;45.876;12.300;2024-01-25T13:46:21;24.80;40.40
3727;DHT22;1879;45.876;12.300;2024-01-25T13:48:49;24.90;39.50
3727;DHT22;1879;45.876;12.300;2024-01-25T13:51:16;25.20;37.20
3727;DHT22;1879;45.876;12.300;2024-01-25T13:53:43;26.20;37.60
3727;DHT22;1879;45.876;12.300;2024-01-25T13:56:10;27.70;36.60
3727;DHT22;1879;45.876;12.300;2024-01-25T13:58:37;28.20;34.50
3727;DHT22;1879;45.876;12.300;2024-01-25T14:01:04;28.50;35.30
3727;DHT22;1879;45.876;12.300;2024-01-25T14:03:31;28.50;32.50
3727;DHT22;1879;45.876;12.300;2024-01-25T14:05:59;28.50;32.30
3727;DHT22;1879;45.876;12.300;2024-01-25T14:08:29;28.60;32.80
3727;DHT22;1879;45.876;12.300;2024-01-25T14:10:56;29.00;32.50
3727;DHT22;1879;45.876;12.300;2024-01-25T14:13:23;29.10;32.50
3727;DHT22;1879;45.876;12.300;2024-01-25T14:15:50;29.30;33.00
3727;DHT22;1879;45.876;12.300;2024-01-25T14:18:17;29.30;33.00
3727;DHT22;1879;45.876;12.300;2024-01-25T14:20:44;30.00;33.00
3727;DHT22;1879;45.876;12.300;2024-01-25T14:23:12;29.70;31.70
3727;DHT22;1879;45.876;12.300;2024-01-25T14:25:39;29.20;32.60
3727;DHT22;1879;45.876;12.300;2024-01-25T14:28:06;28.50;31.60
3727;DHT22;1879;45.876;12.300;2024-01-25T14:30:33;27.80;31.60
3727;DHT22;1879;45.876;12.300;2024-01-25T14:33:00;27.10;31.80
3727;DHT22;1879;45.876;12.300;2024-01-25T14:35:29;26.60;32.10
3727;DHT22;1879;45.876;12.300;2024-01-25T14:37:56;25.80;32.60
3727;DHT22;1879;45.876;12.300;2024-01-25T14:40:25;25.20;33.60
3727;DHT22;1879;45.876;12.300;2024-01-25T14:42:52;24.40;34.60
3727;DHT22;1879;45.876;12.300;2024-01-25T14:45:19;24.10;35.30
3727;DHT22;1879;45.876;12.300;2024-01-25T14:47:46;23.30;35.40
3727;DHT22;1879;45.876;12.300;2024-01-25T14:50:13;22.90;36.20
3727;DHT22;1879;45.876;12.300;2024-01-25T14:52:40;22.40;36.80
3727;DHT22;1879;45.876;12.300;2024-01-25T14:55:07;22.10;37.40
3727;DHT22;1879;45.876;12.300;2024-01-25T14:57:36;21.70;37.70
3727;DHT22;1879;45.876;12.300;2024-01-25T15:00:03;21.40;38.30
3727;DHT22;1879;45.876;12.300;2024-01-25T15:02:32;21.40;38.90
3727;DHT22;1879;45.876;12.300;2024-01-25T15:04:59;21.30;38.70
3727;DHT22;1879;45.876;12.300;2024-01-25T15:07:26;21.40;39.00
3727;DHT22;1879;45.876;12.300;2024-01-25T15:09:53;21.50;39.00
3727;DHT22;1879;45.876;12.300;2024-01-25T15:12:20;21.60;39.00
3727;DHT22;1879;45.876;12.300;2024-01-25T15:14:48;21.40;39.10
3727;DHT22;1879;45.876;12.300;2024-01-25T15:17:15;20.80;39.40
3727;DHT22;1879;45.876;12.300;2024-01-25T15:19:42;20.20;40.10
3727;DHT22;1879;45.876;12.300;2024-01-25T15:22:10;19.60;40.70
3727;DHT22;1879;45.876;12.300;2024-01-25T15:24:36;18.90;41.50
3727;DHT22;1879;45.876;12.300;2024-01-25T15:27:04;18.30;42.70
3727;DHT22;1879;45.876;12.300;2024-01-25T15:29:32;17.70;43.80
3727;DHT22;1879;45.876;12.300;2024-01-25T15:32:00;17.30;44.90
3727;DHT22;1879;45.876;12.300;2024-01-25T15:34:27;17.00;45.80
3727;DHT22;1879;45.876;12.300;2024-01-25T15:36:54;16.70;46.40
3727;DHT22;1879;45.876;12.300;2024-01-25T15:39:20;16.40;47.10
3727;DHT22;1879;45.876;12.300;2024-01-25T15:41:47;16.20;47.60
3727;DHT22;1879;45.876;12.300;2024-01-25T15:44:15;16.00;47.80
3727;DHT22;1879;45.876;12.300;2024-01-25T15:46:42;15.80;48.30
3727;DHT22;1879;45.876;12.300;2024-01-25T15:49:11;15.60;48.60
3727;DHT22;1879;45.876;12.300;2024-01-25T15:51:38;15.40;48.90
3727;DHT22;1879;45.876;12.300;2024-01-25T15:54:05;15.30;49.10
3727;DHT22;1879;45.876;12.300;2024-01-25T15:56:32;15.10;49.40
3727;DHT22;1879;45.876;12.300;2024-01-25T15:58:59;14.90;50.00
3727;DHT22;1879;45.876;12.300;2024-01-25T16:01:26;14.70;50.80